createdAt,value
2018-07-02T00:00:11.338Z,95330.00
2018-07-02T00:02:40.361Z,95336.00
2018-07-02T00:05:09.726Z,95336.00
2018-07-02T00:07:38.729Z,95330.00
2018-07-02T00:10:09.440Z,95322.00
2018-07-02T00:12:38.468Z,95321.00
2018-07-02T00:15:07.698Z,95322.00
2018-07-02T00:17:36.698Z,95312.00
2018-07-02T00:20:06.846Z,95312.00
2018-07-02T00:22:35.841Z,95319.00
2018-07-02T00:25:04.841Z,95313.00
2018-07-02T00:27:33.873Z,95317.00
2018-07-02T00:30:03.039Z,95320.00
2018-07-02T00:32:32.021Z,95320.00
2018-07-02T00:35:01.029Z,95324.00
2018-07-02T00:37:30.017Z,95318.00
2018-07-02T00:39:59.030Z,95316.00
2018-07-02T00:42:28.046Z,95321.00
2018-07-02T00:44:57.037Z,95322.00
2018-07-02T00:47:26.025Z,95317.00
2018-07-02T00:49:55.040Z,95317.00
2018-07-02T00:52:24.195Z,95300.00
2018-07-02T00:54:53.258Z,95296.00
2018-07-02T00:57:22.350Z,95309.00
2018-07-02T00:59:51.352Z,95306.00
2018-07-02T01:02:20.550Z,95313.00
2018-07-02T01:04:49.658Z,95302.00
2018-07-02T01:07:18.646Z,95306.00
2018-07-02T01:09:47.653Z,95302.00
2018-07-02T01:12:16.658Z,95309.00
2018-07-02T01:14:45.692Z,95303.00
2018-07-02T01:17:14.686Z,95308.00
2018-07-02T01:19:43.692Z,95302.00
2018-07-02T01:22:12.784Z,95311.00
2018-07-02T01:24:41.890Z,95312.00
2018-07-02T01:27:10.889Z,95307.00
2018-07-02T01:29:39.901Z,95302.00
2018-07-02T01:32:08.902Z,95304.00
2018-07-02T01:34:38.014Z,95305.00
2018-07-02T01:37:07.001Z,95304.00
2018-07-02T01:39:35.993Z,95299.00
2018-07-02T01:42:04.989Z,95302.00
2018-07-02T01:44:33.997Z,95301.00
2018-07-02T01:47:02.993Z,95300.00
2018-07-02T01:49:31.984Z,95302.00
2018-07-02T01:52:00.976Z,95294.00
2018-07-02T01:54:29.978Z,95297.00
2018-07-02T01:56:58.973Z,95294.00
2018-07-02T01:59:27.995Z,95298.00
2018-07-02T02:01:57.006Z,95299.00
2018-07-02T02:04:26.030Z,95302.00
2018-07-02T02:06:55.305Z,95305.00
2018-07-02T02:09:24.296Z,95296.00
2018-07-02T02:11:53.374Z,95297.00
2018-07-02T02:14:22.373Z,95296.00
2018-07-02T02:16:51.373Z,95298.00
2018-07-02T02:19:20.906Z,95295.00
2018-07-02T02:21:49.889Z,95293.00
2018-07-02T02:24:18.898Z,95293.00
2018-07-02T02:26:47.914Z,95304.00
2018-07-02T02:29:16.929Z,95292.00
2018-07-02T02:31:45.941Z,95292.00
2018-07-02T02:34:14.949Z,95295.00
2018-07-02T02:36:44.046Z,95294.00
2018-07-02T02:39:13.098Z,95291.00
2018-07-02T02:41:42.126Z,95285.00
2018-07-02T02:44:11.240Z,95289.00
2018-07-02T02:46:40.221Z,95280.00
2018-07-02T02:49:09.243Z,95288.00
2018-07-02T02:51:38.251Z,95290.00
2018-07-02T02:54:07.262Z,95282.00
2018-07-02T02:56:36.261Z,95282.00
2018-07-02T02:59:05.385Z,95293.00
2018-07-02T03:01:34.449Z,95293.00
2018-07-02T03:04:03.443Z,95289.00
2018-07-02T03:06:32.439Z,95284.00
2018-07-02T03:09:01.622Z,95291.00
2018-07-02T03:11:30.615Z,95291.00
2018-07-02T03:13:59.610Z,95288.00
2018-07-02T03:16:28.606Z,95288.00
2018-07-02T03:18:57.608Z,95285.00
2018-07-02T03:21:26.603Z,95274.00
2018-07-02T03:23:55.588Z,95287.00
2018-07-02T03:26:24.567Z,95277.00
2018-07-02T03:28:53.546Z,95275.00
2018-07-02T03:31:22.539Z,95279.00
2018-07-02T03:33:51.533Z,95274.00
2018-07-02T03:36:20.629Z,95271.00
2018-07-02T03:38:49.612Z,95278.00
2018-07-02T03:41:18.619Z,95277.00
2018-07-02T03:43:47.718Z,95282.00
2018-07-02T03:46:16.726Z,95286.00
2018-07-02T03:48:45.726Z,95286.00
2018-07-02T03:51:14.721Z,95283.00
2018-07-02T03:53:43.781Z,95280.00
2018-07-02T03:56:12.767Z,95278.00
2018-07-02T03:58:41.758Z,95278.00
2018-07-02T04:01:10.830Z,95284.00
2018-07-02T04:03:39.789Z,95277.00
2018-07-02T04:06:08.787Z,95277.00
2018-07-02T04:08:37.758Z,95277.00
2018-07-02T04:11:06.766Z,95278.00
2018-07-02T04:13:35.797Z,95282.00
2018-07-02T04:16:04.882Z,95287.00
2018-07-02T04:18:34.538Z,95284.00
2018-07-02T04:21:03.541Z,95285.00
2018-07-02T04:23:32.577Z,95289.00
2018-07-02T04:26:01.732Z,95279.00
2018-07-02T04:28:30.730Z,95289.00
2018-07-02T04:30:59.722Z,95283.00
2018-07-02T04:33:28.747Z,95289.00
2018-07-02T04:35:57.743Z,95293.00
2018-07-02T04:38:26.752Z,95293.00
2018-07-02T04:40:55.973Z,95287.00
2018-07-02T04:43:25.090Z,95293.00
2018-07-02T04:45:54.737Z,95290.00
2018-07-02T04:48:23.721Z,95298.00
2018-07-02T04:50:52.736Z,95293.00
2018-07-02T04:53:21.736Z,95294.00
2018-07-02T04:55:51.016Z,95289.00
2018-07-02T04:58:20.705Z,95284.00
2018-07-02T05:00:49.740Z,95296.00
2018-07-02T05:03:18.722Z,95287.00
2018-07-02T05:05:47.717Z,95284.00
2018-07-02T05:08:16.704Z,95285.00
2018-07-02T05:10:45.706Z,95295.00
2018-07-02T05:13:14.690Z,95296.00
2018-07-02T05:15:43.739Z,95294.00
2018-07-02T05:18:12.722Z,95289.00
2018-07-02T05:20:41.763Z,95297.00
2018-07-02T05:23:10.762Z,95286.00
2018-07-02T05:25:39.742Z,95286.00
2018-07-02T05:28:08.727Z,95280.00
2018-07-02T05:30:37.711Z,95279.00
2018-07-02T05:33:06.910Z,95284.00
2018-07-02T05:35:35.918Z,95283.00
2018-07-02T05:38:05.034Z,95285.00
2018-07-02T05:40:34.006Z,95279.00
2018-07-02T05:43:03.463Z,95273.00
2018-07-02T05:45:32.468Z,95282.00
2018-07-02T05:48:01.482Z,95281.00
2018-07-02T05:50:30.494Z,95278.00
2018-07-02T05:52:59.497Z,95279.00
2018-07-02T05:55:28.518Z,95280.00
2018-07-02T05:57:57.578Z,95278.00
2018-07-02T06:00:26.775Z,95285.00
2018-07-02T06:02:55.858Z,95287.00
2018-07-02T06:05:24.896Z,95286.00
2018-07-02T06:07:53.942Z,95292.00
2018-07-02T06:10:22.874Z,95288.00
2018-07-02T06:12:51.868Z,95297.00
2018-07-02T06:15:20.858Z,95293.00
2018-07-02T06:17:49.862Z,95281.00
2018-07-02T06:20:18.890Z,95295.00
2018-07-02T06:22:47.911Z,95297.00
2018-07-02T06:25:16.910Z,95299.00
2018-07-02T06:27:45.917Z,95301.00
2018-07-02T06:30:14.910Z,95299.00
2018-07-02T06:32:43.906Z,95305.00
2018-07-02T06:35:12.901Z,95305.00
2018-07-02T06:37:41.936Z,95303.00
2018-07-02T06:40:10.912Z,95298.00
2018-07-02T06:42:39.985Z,95302.00
2018-07-02T06:45:09.005Z,95304.00
2018-07-02T06:47:38.407Z,95302.00
2018-07-02T06:50:07.398Z,95300.00
2018-07-02T06:52:36.434Z,95297.00
2018-07-02T06:55:05.657Z,95303.00
2018-07-02T06:57:34.656Z,95288.00
2018-07-02T07:00:03.718Z,95294.00
2018-07-02T07:02:32.742Z,95298.00
2018-07-02T07:05:01.750Z,95301.00
2018-07-02T07:07:30.762Z,95296.00
2018-07-02T07:09:59.783Z,95296.00
2018-07-02T07:12:28.777Z,95293.00
2018-07-02T07:14:57.778Z,95297.00
2018-07-02T07:17:26.827Z,95297.00
2018-07-02T07:19:55.841Z,95293.00
2018-07-02T07:22:24.830Z,95287.00
2018-07-02T07:24:53.818Z,95292.00
2018-07-02T07:27:22.818Z,95292.00
2018-07-02T07:29:51.806Z,95291.00
2018-07-02T07:32:20.794Z,95290.00
2018-07-02T07:34:49.782Z,95297.00
2018-07-02T07:37:18.919Z,95296.00
2018-07-02T07:39:47.898Z,95285.00
2018-07-02T07:42:17.011Z,95292.00
2018-07-02T07:44:46.031Z,95294.00
2018-07-02T07:47:15.178Z,95287.00
2018-07-02T07:49:44.257Z,95291.00
2018-07-02T07:52:13.534Z,95292.00
2018-07-02T07:54:42.529Z,95288.00
2018-07-02T07:57:11.650Z,95288.00
2018-07-02T07:59:40.779Z,95292.00
2018-07-02T08:02:09.824Z,95295.00
2018-07-02T08:04:38.866Z,95305.00
2018-07-02T08:07:07.856Z,95305.00
2018-07-02T08:09:36.849Z,95304.00
2018-07-02T08:12:06.015Z,95305.00
2018-07-02T08:14:35.015Z,95301.00
2018-07-02T08:17:04.150Z,95299.00
2018-07-02T08:19:33.154Z,95305.00
2018-07-02T08:22:02.261Z,95295.00
2018-07-02T08:24:31.386Z,95300.00
2018-07-02T08:27:00.371Z,95291.00
2018-07-02T08:29:29.386Z,95299.00
2018-07-02T08:31:58.528Z,95296.00
2018-07-02T08:34:27.725Z,95295.00
2018-07-02T08:36:56.858Z,95291.00
2018-07-02T08:39:25.885Z,95289.00
2018-07-02T08:41:54.891Z,95292.00
2018-07-02T08:44:23.970Z,95285.00
2018-07-02T08:46:53.145Z,95283.00
2018-07-02T08:49:22.062Z,95284.00
2018-07-02T08:51:51.054Z,95283.00
2018-07-02T08:54:20.037Z,95278.00
2018-07-02T08:56:49.015Z,95277.00
2018-07-02T08:59:18.014Z,95275.00
2018-07-02T09:01:46.992Z,95279.00
2018-07-02T09:04:15.971Z,95275.00
2018-07-02T09:06:44.992Z,95268.00
2018-07-02T09:09:14.614Z,95270.00
2018-07-02T09:11:43.601Z,95278.00
2018-07-02T09:14:12.615Z,95275.00
2018-07-02T09:16:41.611Z,95274.00
2018-07-02T09:19:10.623Z,95280.00
2018-07-02T09:21:39.602Z,95273.00
2018-07-02T09:24:08.587Z,95282.00
2018-07-02T09:26:37.610Z,95284.00
2018-07-02T09:29:06.602Z,95289.00
2018-07-02T09:31:35.798Z,95285.00
2018-07-02T09:34:05.020Z,95281.00
2018-07-02T09:36:34.050Z,95286.00
2018-07-02T09:39:03.226Z,95271.00
2018-07-02T09:41:32.213Z,95272.00
2018-07-02T09:44:01.210Z,95272.00
2018-07-02T09:46:30.189Z,95274.00
2018-07-02T09:48:59.182Z,95281.00
2018-07-02T09:51:28.189Z,95270.00
2018-07-02T09:53:57.487Z,95268.00
2018-07-02T09:56:26.486Z,95275.00
2018-07-02T09:58:55.810Z,95282.00
2018-07-02T10:01:24.791Z,95274.00
2018-07-02T10:03:53.779Z,95276.00
2018-07-02T10:06:22.864Z,95279.00
2018-07-02T10:08:51.873Z,95269.00
2018-07-02T10:11:20.885Z,95267.00
2018-07-02T10:13:49.878Z,95262.00
2018-07-02T10:16:18.886Z,95262.00
2018-07-02T10:18:47.879Z,95267.00
2018-07-02T10:21:16.896Z,95268.00
2018-07-02T10:23:45.892Z,95260.00
2018-07-02T10:26:14.914Z,95263.00
2018-07-02T10:28:44.152Z,95255.00
2018-07-02T10:31:13.196Z,95255.00
2018-07-02T10:33:42.146Z,95259.00
2018-07-02T10:36:11.152Z,95265.00
2018-07-02T10:38:40.222Z,95259.00
2018-07-02T10:41:09.226Z,95261.00
2018-07-02T10:43:38.226Z,95272.00
2018-07-02T10:46:07.270Z,95267.00
2018-07-02T10:48:37.704Z,95260.00
2018-07-02T10:51:06.763Z,95260.00
2018-07-02T10:53:35.903Z,95262.00
2018-07-02T10:56:04.931Z,95264.00
2018-07-02T10:58:35.060Z,95261.00
2018-07-02T11:01:04.071Z,95269.00
2018-07-02T11:03:38.544Z,95266.00
2018-07-02T11:06:07.727Z,95266.00
2018-07-02T11:08:36.712Z,95272.00
2018-07-02T11:11:05.697Z,95271.00
2018-07-02T11:13:34.710Z,95267.00
2018-07-02T11:16:04.488Z,95268.00
2018-07-02T11:18:34.095Z,95268.00
2018-07-02T11:21:03.262Z,95267.00
2018-07-02T11:23:33.510Z,95264.00
2018-07-02T11:26:02.658Z,95269.00
2018-07-02T11:28:31.675Z,95274.00
2018-07-02T11:31:00.790Z,95272.00
2018-07-02T11:33:29.931Z,95264.00
2018-07-02T11:35:59.158Z,95261.00
2018-07-02T11:38:28.181Z,95260.00
2018-07-02T11:40:58.177Z,95264.00
2018-07-02T11:43:27.169Z,95250.00
2018-07-02T11:45:56.162Z,95258.00
2018-07-02T11:48:26.433Z,95258.00
2018-07-02T11:50:55.410Z,95259.00
2018-07-02T11:53:24.630Z,95256.00
2018-07-02T11:55:53.662Z,95266.00
2018-07-02T11:58:23.335Z,95261.00
2018-07-02T12:00:52.340Z,95266.00
2018-07-02T12:03:21.368Z,95263.00
2018-07-02T12:05:50.386Z,95262.00
2018-07-02T12:08:19.494Z,95263.00
2018-07-02T12:10:48.503Z,95258.00
2018-07-02T12:13:17.486Z,95254.00
2018-07-02T12:15:46.677Z,95261.00
2018-07-02T12:18:15.830Z,95259.00
2018-07-02T12:20:44.837Z,95266.00
2018-07-02T12:23:13.934Z,95262.00
2018-07-02T12:25:43.045Z,95256.00
2018-07-02T12:28:13.287Z,95257.00
2018-07-02T12:30:42.423Z,95260.00
2018-07-02T12:33:11.420Z,95255.00
2018-07-02T12:35:40.442Z,95251.00
2018-07-02T12:38:09.438Z,95250.00
2018-07-02T12:40:38.464Z,95249.00
2018-07-02T12:43:07.453Z,95251.00
2018-07-02T12:45:36.560Z,95256.00
2018-07-02T12:48:05.678Z,95255.00
2018-07-02T12:50:34.845Z,95257.00
2018-07-02T12:53:04.290Z,95251.00
2018-07-02T12:55:33.322Z,95252.00
2018-07-02T12:58:03.677Z,95252.00
2018-07-02T13:00:32.702Z,95262.00
2018-07-02T13:03:01.929Z,95261.00
2018-07-02T13:05:30.932Z,95266.00
2018-07-02T13:07:59.929Z,95264.00
2018-07-02T13:10:28.986Z,95267.00
2018-07-02T13:13:00.314Z,95265.00
2018-07-02T13:15:29.297Z,95276.00
2018-07-02T13:17:58.582Z,95268.00
2018-07-02T13:20:27.678Z,95265.00
2018-07-02T13:22:56.718Z,95259.00
2018-07-02T13:25:26.113Z,95270.00
2018-07-02T13:27:55.429Z,95268.00
2018-07-02T13:30:24.530Z,95266.00
2018-07-02T13:32:53.570Z,95266.00
2018-07-02T13:35:22.610Z,95264.00
2018-07-02T13:37:51.710Z,95264.00
2018-07-02T13:40:21.046Z,95271.00
2018-07-02T13:42:50.034Z,95270.00
2018-07-02T13:45:19.182Z,95272.00
2018-07-02T13:47:48.217Z,95274.00
2018-07-02T13:50:17.410Z,95273.00
2018-07-02T13:52:46.406Z,95278.00
2018-07-02T13:55:15.396Z,95269.00
2018-07-02T13:57:44.488Z,95271.00
2018-07-02T14:00:13.639Z,95264.00
2018-07-02T14:02:42.591Z,95260.00
2018-07-02T14:05:11.710Z,95270.00
2018-07-02T14:07:40.870Z,95265.00
2018-07-02T14:10:09.878Z,95265.00
2018-07-02T14:12:38.861Z,95275.00
2018-07-02T14:15:08.637Z,95264.00
2018-07-02T14:17:37.678Z,95268.00
2018-07-02T14:20:06.890Z,95265.00
2018-07-02T14:22:35.879Z,95264.00
2018-07-02T14:25:05.018Z,95260.00
2018-07-02T14:27:34.006Z,95260.00
2018-07-02T14:30:03.006Z,95259.00
2018-07-02T14:32:33.825Z,95262.00
2018-07-02T14:35:02.931Z,95256.00
2018-07-02T14:37:31.969Z,95258.00
2018-07-02T14:40:00.951Z,95255.00
2018-07-02T14:42:30.500Z,95260.00
2018-07-02T14:44:59.832Z,95259.00
2018-07-02T14:47:28.762Z,95250.00
2018-07-02T14:49:58.735Z,95245.00
2018-07-02T14:52:28.116Z,95242.00
2018-07-02T14:54:57.351Z,95248.00
2018-07-02T14:57:26.581Z,95252.00
2018-07-02T14:59:55.578Z,95241.00
2018-07-02T15:02:24.686Z,95243.00
2018-07-02T15:04:53.912Z,95235.00
2018-07-02T15:07:22.899Z,95243.00
2018-07-02T15:09:51.918Z,95235.00
2018-07-02T15:12:22.834Z,95242.00
2018-07-02T15:14:51.950Z,95234.00
2018-07-02T15:17:20.975Z,95235.00
2018-07-02T15:19:49.982Z,95232.00
2018-07-02T15:22:21.653Z,95235.00
2018-07-02T15:24:51.037Z,95233.00
2018-07-02T15:27:20.221Z,95237.00
2018-07-02T15:29:49.217Z,95242.00
2018-07-02T15:32:18.895Z,95240.00
2018-07-02T15:34:48.170Z,95241.00
2018-07-02T15:37:17.433Z,95242.00
2018-07-02T15:39:49.116Z,95231.00
2018-07-02T15:42:18.157Z,95235.00
2018-07-02T15:44:48.297Z,95236.00
2018-07-02T15:47:17.327Z,95238.00
2018-07-02T15:49:47.282Z,95245.00
2018-07-02T15:52:18.930Z,95244.00
2018-07-02T15:54:47.967Z,95242.00
2018-07-02T15:57:17.715Z,95245.00
2018-07-02T15:59:47.042Z,95252.00
2018-07-02T16:02:17.082Z,95247.00
2018-07-02T16:04:46.543Z,95243.00
2018-07-02T16:07:16.314Z,95242.00
2018-07-02T16:09:47.814Z,95246.00
2018-07-02T16:12:16.930Z,95244.00
2018-07-02T16:14:45.909Z,95242.00
2018-07-02T16:17:14.936Z,95236.00
2018-07-02T16:19:48.274Z,95236.00
2018-07-02T16:22:17.282Z,95240.00
2018-07-02T16:24:47.554Z,95229.00
2018-07-02T16:27:16.542Z,95235.00
2018-07-02T16:29:45.551Z,95232.00
2018-07-02T16:32:14.784Z,95238.00
2018-07-02T16:34:43.959Z,95249.00
2018-07-02T16:37:13.062Z,95251.00
2018-07-02T16:39:42.124Z,95242.00
2018-07-02T16:42:11.196Z,95238.00
2018-07-02T16:44:40.294Z,95242.00
2018-07-02T16:47:09.303Z,95245.00
2018-07-02T16:49:38.302Z,95248.00
2018-07-02T16:52:07.334Z,95243.00
2018-07-02T16:54:36.324Z,95240.00
2018-07-02T16:57:05.318Z,95248.00
2018-07-02T16:59:34.317Z,95248.00
2018-07-02T17:02:03.942Z,95251.00
2018-07-02T17:04:32.981Z,95251.00
2018-07-02T17:07:01.950Z,95251.00
2018-07-02T17:09:31.086Z,95253.00
2018-07-02T17:12:00.120Z,95249.00
2018-07-02T17:14:29.226Z,95245.00
2018-07-02T17:16:58.365Z,95251.00
2018-07-02T17:19:27.381Z,95260.00
2018-07-02T17:21:57.003Z,95262.00
2018-07-02T17:24:26.049Z,95258.00
2018-07-02T17:26:55.058Z,95265.00
2018-07-02T17:29:24.121Z,95267.00
2018-07-02T17:31:53.355Z,95261.00
2018-07-02T17:34:22.421Z,95262.00
2018-07-02T17:36:51.378Z,95264.00
2018-07-02T17:39:20.419Z,95266.00
2018-07-02T17:41:49.689Z,95273.00
2018-07-02T17:44:18.782Z,95271.00
2018-07-02T17:46:47.754Z,95273.00
2018-07-02T17:49:16.877Z,95266.00
2018-07-02T17:51:45.870Z,95267.00
2018-07-02T17:54:15.171Z,95261.00
2018-07-02T17:56:44.206Z,95272.00
2018-07-02T17:59:14.368Z,95274.00
2018-07-02T18:01:48.590Z,95265.00
2018-07-02T18:04:17.626Z,95274.00
2018-07-02T18:06:47.527Z,95279.00
2018-07-02T18:09:16.784Z,95283.00
2018-07-02T18:11:45.968Z,95275.00
2018-07-02T18:14:15.204Z,95276.00
2018-07-02T18:16:44.370Z,95282.00
2018-07-02T18:19:13.626Z,95280.00
2018-07-02T18:21:42.874Z,95283.00
2018-07-02T18:24:12.058Z,95284.00
2018-07-02T18:26:41.210Z,95288.00
2018-07-02T18:29:10.426Z,95286.00
2018-07-02T18:31:39.632Z,95286.00
2018-07-02T18:34:08.890Z,95279.00
2018-07-02T18:36:38.113Z,95276.00
2018-07-02T18:39:10.827Z,95282.00
2018-07-02T18:41:40.162Z,95283.00
2018-07-02T18:44:09.540Z,95280.00
2018-07-02T18:46:39.133Z,95283.00
2018-07-02T18:49:08.357Z,95281.00
2018-07-02T18:51:37.478Z,95288.00
2018-07-02T18:54:06.375Z,95283.00
2018-07-02T18:56:35.667Z,95285.00
2018-07-02T18:59:04.857Z,95287.00
2018-07-02T19:01:34.203Z,95281.00
2018-07-02T19:04:03.529Z,95283.00
2018-07-02T19:06:33.609Z,95287.00
2018-07-02T19:09:02.830Z,95286.00
2018-07-02T19:11:32.023Z,95289.00
2018-07-02T19:14:01.194Z,95293.00
2018-07-02T19:16:30.439Z,95292.00
2018-07-02T19:19:00.111Z,95301.00
2018-07-02T19:21:29.182Z,95309.00
2018-07-02T19:23:58.390Z,95302.00
2018-07-02T19:26:27.729Z,95311.00
2018-07-02T19:28:56.914Z,95310.00
2018-07-02T19:31:25.976Z,95319.00
2018-07-02T19:33:55.927Z,95320.00
2018-07-02T19:36:26.007Z,95325.00
2018-07-02T19:38:55.921Z,95327.00
2018-07-02T19:41:25.987Z,95328.00
2018-07-02T19:43:56.046Z,95329.00
2018-07-02T19:46:26.019Z,95333.00
2018-07-02T19:48:55.994Z,95338.00
2018-07-02T19:51:26.021Z,95335.00
2018-07-02T19:53:55.950Z,95331.00
2018-07-02T19:56:26.078Z,95333.00
2018-07-02T19:58:56.173Z,95339.00
2018-07-02T20:01:26.158Z,95339.00
2018-07-02T20:03:56.902Z,95339.00
2018-07-02T20:06:26.835Z,95338.00
2018-07-02T20:08:56.222Z,95342.00
2018-07-02T20:11:26.550Z,95342.00
2018-07-02T20:13:56.362Z,95329.00
2018-07-02T20:16:26.421Z,95337.00
2018-07-02T20:18:56.416Z,95338.00
2018-07-02T20:21:26.314Z,95340.00
2018-07-02T20:23:56.526Z,95353.00
2018-07-02T20:26:26.470Z,95349.00
2018-07-02T20:28:56.454Z,95351.00
2018-07-02T20:31:26.202Z,95363.00
2018-07-02T20:33:56.273Z,95368.00
2018-07-02T20:36:28.044Z,95365.00
2018-07-02T20:38:57.496Z,95365.00
2018-07-02T20:41:26.634Z,95366.00
2018-07-02T20:43:58.719Z,95374.00
2018-07-02T20:46:27.918Z,95375.00
2018-07-02T20:48:57.146Z,95375.00
2018-07-02T20:51:26.575Z,95373.00
2018-07-02T20:53:56.643Z,95377.00
2018-07-02T20:56:26.862Z,95373.00
2018-07-02T20:58:56.673Z,95385.00
2018-07-02T21:01:26.815Z,95379.00
2018-07-02T21:03:56.513Z,95380.00
2018-07-02T21:06:26.292Z,95385.00
2018-07-02T21:08:55.529Z,95384.00
2018-07-02T21:11:24.702Z,95388.00
2018-07-02T21:13:53.886Z,95387.00
2018-07-02T21:16:24.334Z,95380.00
2018-07-02T21:18:53.548Z,95381.00
2018-07-02T21:21:23.611Z,95384.00
2018-07-02T21:23:52.702Z,95376.00
2018-07-02T21:26:21.870Z,95372.00
2018-07-02T21:28:50.982Z,95374.00
2018-07-02T21:31:20.095Z,95373.00
2018-07-02T21:33:49.350Z,95384.00
2018-07-02T21:36:18.567Z,95387.00
2018-07-02T21:38:47.847Z,95374.00
2018-07-02T21:41:16.975Z,95389.00
2018-07-02T21:43:46.147Z,95390.00
2018-07-02T21:46:15.290Z,95388.00
2018-07-02T21:48:44.474Z,95388.00
2018-07-02T21:51:13.558Z,95389.00
2018-07-02T21:53:42.785Z,95386.00
2018-07-02T21:56:11.866Z,95392.00
2018-07-02T21:58:41.078Z,95384.00
2018-07-02T22:01:10.119Z,95379.00
2018-07-02T22:03:39.291Z,95377.00
2018-07-02T22:06:08.548Z,95384.00
2018-07-02T22:08:37.694Z,95379.00
2018-07-02T22:11:06.820Z,95378.00
2018-07-02T22:13:36.014Z,95377.00
2018-07-02T22:16:05.780Z,95386.00
2018-07-02T22:18:34.991Z,95381.00
2018-07-02T22:21:04.089Z,95378.00
2018-07-02T22:23:33.242Z,95378.00
2018-07-02T22:26:02.448Z,95378.00
2018-07-02T22:28:31.562Z,95380.00
2018-07-02T22:31:00.804Z,95372.00
2018-07-02T22:33:29.994Z,95369.00
2018-07-02T22:35:59.261Z,95376.00
2018-07-02T22:38:29.082Z,95373.00
2018-07-02T22:40:58.263Z,95370.00
2018-07-02T22:43:28.003Z,95373.00
2018-07-02T22:45:57.882Z,95360.00
2018-07-02T22:48:27.958Z,95371.00
2018-07-02T22:50:57.863Z,95372.00
2018-07-02T22:53:27.785Z,95381.00
2018-07-02T22:56:00.993Z,95373.00
2018-07-02T22:58:30.190Z,95378.00
2018-07-02T23:01:00.142Z,95371.00
2018-07-02T23:03:29.055Z,95374.00
2018-07-02T23:05:58.167Z,95372.00
2018-07-02T23:08:28.327Z,95377.00
2018-07-02T23:10:58.250Z,95382.00
2018-07-02T23:13:28.226Z,95378.00
2018-07-02T23:16:04.042Z,95376.00
2018-07-02T23:18:34.050Z,95385.00
2018-07-02T23:21:03.110Z,95379.00
2018-07-02T23:23:32.325Z,95387.00
2018-07-02T23:26:01.511Z,95384.00
2018-07-02T23:28:30.662Z,95385.00
2018-07-02T23:30:59.787Z,95386.00
2018-07-02T23:33:28.907Z,95386.00
2018-07-02T23:35:58.462Z,95380.00
2018-07-02T23:38:28.628Z,95379.00
2018-07-02T23:40:58.510Z,95383.00
2018-07-02T23:43:28.797Z,95376.00
2018-07-02T23:45:58.512Z,95387.00
2018-07-02T23:48:28.497Z,95378.00
2018-07-02T23:50:58.466Z,95379.00
2018-07-02T23:53:28.607Z,95377.00
2018-07-02T23:55:58.634Z,95373.00
2018-07-02T23:58:27.831Z,95368.00
